sensor_id;sensor_type;location;lat;lon;timestamp;P1;durP1;ratioP1;P2;durP2;ratioP2
24064;SDS011;12258;50.940;5.330;2022-07-21T00:02:16;9.40;;;8.40;;
24064;SDS011;12258;50.940;5.330;2022-07-21T00:04:41;11.75;;;8.90;;
24064;SDS011;12258;50.940;5.330;2022-07-21T00:07:06;9.02;;;8.00;;
24064;SDS011;12258;50.940;5.330;2022-07-21T00:09:33;10.77;;;8.18;;
24064;SDS011;12258;50.940;5.330;2022-07-21T00:12:00;8.30;;;7.43;;
24064;SDS011;12258;50.940;5.330;2022-07-21T00:14:27;10.18;;;7.88;;
24064;SDS011;12258;50.940;5.330;2022-07-21T00:16:53;10.38;;;9.02;;
24064;SDS011;12258;50.940;5.330;2022-07-21T00:19:19;9.10;;;7.43;;
24064;SDS011;12258;50.940;5.330;2022-07-21T00:21:44;12.63;;;8.13;;
24064;SDS011;12258;50.940;5.330;2022-07-21T00:24:10;9.27;;;8.15;;
24064;SDS011;12258;50.940;5.330;2022-07-21T00:26:35;12.68;;;8.35;;
24064;SDS011;12258;50.940;5.330;2022-07-21T00:29:01;11.27;;;8.00;;
24064;SDS011;12258;50.940;5.330;2022-07-21T00:31:27;11.57;;;7.47;;
24064;SDS011;12258;50.940;5.330;2022-07-21T00:33:53;9.05;;;8.25;;
24064;SDS011;12258;50.940;5.330;2022-07-21T00:36:20;9.15;;;7.63;;
24064;SDS011;12258;50.940;5.330;2022-07-21T00:38:46;11.00;;;8.73;;
24064;SDS011;12258;50.940;5.330;2022-07-21T00:41:13;11.18;;;8.60;;
24064;SDS011;12258;50.940;5.330;2022-07-21T00:43:39;10.57;;;8.88;;
24064;SDS011;12258;50.940;5.330;2022-07-21T00:46:05;12.50;;;9.75;;
24064;SDS011;12258;50.940;5.330;2022-07-21T00:48:31;13.13;;;9.20;;
24064;SDS011;12258;50.940;5.330;2022-07-21T00:50:57;12.10;;;8.88;;
24064;SDS011;12258;50.940;5.330;2022-07-21T00:53:22;13.05;;;9.88;;
24064;SDS011;12258;50.940;5.330;2022-07-21T00:55:48;12.80;;;9.02;;
24064;SDS011;12258;50.940;5.330;2022-07-21T00:58:13;11.43;;;9.68;;
24064;SDS011;12258;50.940;5.330;2022-07-21T01:00:40;14.32;;;9.80;;
24064;SDS011;12258;50.940;5.330;2022-07-21T01:03:06;11.80;;;9.00;;
24064;SDS011;12258;50.940;5.330;2022-07-21T01:05:32;10.98;;;8.50;;
24064;SDS011;12258;50.940;5.330;2022-07-21T01:07:57;10.60;;;9.45;;
24064;SDS011;12258;50.940;5.330;2022-07-21T01:10:30;11.45;;;9.02;;
24064;SDS011;12258;50.940;5.330;2022-07-21T01:12:57;11.27;;;9.35;;
24064;SDS011;12258;50.940;5.330;2022-07-21T01:15:23;12.68;;;9.40;;
24064;SDS011;12258;50.940;5.330;2022-07-21T01:17:49;12.95;;;10.48;;
24064;SDS011;12258;50.940;5.330;2022-07-21T01:20:18;12.45;;;9.13;;
24064;SDS011;12258;50.940;5.330;2022-07-21T01:22:45;13.45;;;9.65;;
24064;SDS011;12258;50.940;5.330;2022-07-21T01:25:12;11.98;;;10.68;;
24064;SDS011;12258;50.940;5.330;2022-07-21T01:27:38;13.77;;;11.02;;
24064;SDS011;12258;50.940;5.330;2022-07-21T01:30:05;13.40;;;10.55;;
24064;SDS011;12258;50.940;5.330;2022-07-21T01:32:34;14.18;;;10.73;;
24064;SDS011;12258;50.940;5.330;2022-07-21T01:35:00;11.15;;;9.52;;
24064;SDS011;12258;50.940;5.330;2022-07-21T01:37:28;16.63;;;10.32;;
24064;SDS011;12258;50.940;5.330;2022-07-21T01:39:55;12.20;;;10.43;;
24064;SDS011;12258;50.940;5.330;2022-07-21T01:42:39;11.15;;;10.02;;
24064;SDS011;12258;50.940;5.330;2022-07-21T01:45:05;14.82;;;10.32;;
24064;SDS011;12258;50.940;5.330;2022-07-21T01:47:31;13.57;;;11.07;;
24064;SDS011;12258;50.940;5.330;2022-07-21T01:49:58;15.75;;;11.07;;
24064;SDS011;12258;50.940;5.330;2022-07-21T01:52:23;14.93;;;11.70;;
24064;SDS011;12258;50.940;5.330;2022-07-21T01:54:49;15.27;;;10.07;;
24064;SDS011;12258;50.940;5.330;2022-07-21T01:57:15;14.23;;;10.65;;
24064;SDS011;12258;50.940;5.330;2022-07-21T01:59:40;14.52;;;10.73;;
24064;SDS011;12258;50.940;5.330;2022-07-21T02:02:06;11.43;;;10.18;;
24064;SDS011;12258;50.940;5.330;2022-07-21T02:04:32;15.82;;;10.93;;
24064;SDS011;12258;50.940;5.330;2022-07-21T02:06:59;16.90;;;12.63;;
24064;SDS011;12258;50.940;5.330;2022-07-21T02:09:26;15.45;;;11.88;;
24064;SDS011;12258;50.940;5.330;2022-07-21T02:11:52;14.63;;;11.88;;
24064;SDS011;12258;50.940;5.330;2022-07-21T02:14:17;14.50;;;11.48;;
24064;SDS011;12258;50.940;5.330;2022-07-21T02:16:43;12.75;;;11.15;;
24064;SDS011;12258;50.940;5.330;2022-07-21T02:19:09;19.08;;;12.25;;
24064;SDS011;12258;50.940;5.330;2022-07-21T02:21:35;14.77;;;11.63;;
24064;SDS011;12258;50.940;5.330;2022-07-21T02:24:01;14.75;;;12.30;;
24064;SDS011;12258;50.940;5.330;2022-07-21T02:26:26;20.48;;;12.35;;
24064;SDS011;12258;50.940;5.330;2022-07-21T02:28:52;20.08;;;12.13;;
24064;SDS011;12258;50.940;5.330;2022-07-21T02:31:17;16.25;;;12.82;;
24064;SDS011;12258;50.940;5.330;2022-07-21T02:33:43;13.40;;;11.77;;
24064;SDS011;12258;50.940;5.330;2022-07-21T02:36:09;17.85;;;12.95;;
24064;SDS011;12258;50.940;5.330;2022-07-21T02:38:35;16.52;;;12.30;;
24064;SDS011;12258;50.940;5.330;2022-07-21T02:41:01;17.50;;;12.73;;
24064;SDS011;12258;50.940;5.330;2022-07-21T02:43:27;15.75;;;12.82;;
24064;SDS011;12258;50.940;5.330;2022-07-21T02:45:53;15.07;;;13.48;;
24064;SDS011;12258;50.940;5.330;2022-07-21T02:48:18;14.85;;;12.77;;
24064;SDS011;12258;50.940;5.330;2022-07-21T02:50:44;18.98;;;13.95;;
24064;SDS011;12258;50.940;5.330;2022-07-21T02:53:11;18.77;;;13.63;;
24064;SDS011;12258;50.940;5.330;2022-07-21T02:55:38;16.23;;;13.00;;
24064;SDS011;12258;50.940;5.330;2022-07-21T02:58:14;18.60;;;14.18;;
24064;SDS011;12258;50.940;5.330;2022-07-21T03:00:59;15.48;;;12.75;;
24064;SDS011;12258;50.940;5.330;2022-07-21T03:03:27;18.20;;;12.35;;
24064;SDS011;12258;50.940;5.330;2022-07-21T03:05:55;19.88;;;13.45;;
24064;SDS011;12258;50.940;5.330;2022-07-21T03:08:21;16.80;;;13.80;;
24064;SDS011;12258;50.940;5.330;2022-07-21T03:10:47;17.27;;;13.60;;
24064;SDS011;12258;50.940;5.330;2022-07-21T03:13:13;21.13;;;14.02;;
24064;SDS011;12258;50.940;5.330;2022-07-21T03:15:39;18.85;;;13.73;;
24064;SDS011;12258;50.940;5.330;2022-07-21T03:18:05;17.63;;;13.65;;
24064;SDS011;12258;50.940;5.330;2022-07-21T03:20:32;17.95;;;13.05;;
24064;SDS011;12258;50.940;5.330;2022-07-21T03:22:59;17.98;;;13.98;;
24064;SDS011;12258;50.940;5.330;2022-07-21T03:25:26;17.85;;;13.75;;
24064;SDS011;12258;50.940;5.330;2022-07-21T03:27:52;19.75;;;13.98;;
24064;SDS011;12258;50.940;5.330;2022-07-21T03:30:18;18.25;;;14.15;;
24064;SDS011;12258;50.940;5.330;2022-07-21T03:32:44;22.10;;;13.98;;
24064;SDS011;12258;50.940;5.330;2022-07-21T03:35:11;21.02;;;14.18;;
24064;SDS011;12258;50.940;5.330;2022-07-21T03:37:48;20.75;;;14.68;;
24064;SDS011;12258;50.940;5.330;2022-07-21T03:40:30;27.00;;;14.77;;
24064;SDS011;12258;50.940;5.330;2022-07-21T03:42:58;23.33;;;14.82;;
24064;SDS011;12258;50.940;5.330;2022-07-21T03:45:25;20.13;;;13.50;;
24064;SDS011;12258;50.940;5.330;2022-07-21T03:47:54;17.90;;;14.55;;
24064;SDS011;12258;50.940;5.330;2022-07-21T03:50:21;19.10;;;14.95;;
24064;SDS011;12258;50.940;5.330;2022-07-21T03:52:47;18.92;;;13.27;;
24064;SDS011;12258;50.940;5.330;2022-07-21T03:55:13;21.23;;;13.45;;
24064;SDS011;12258;50.940;5.330;2022-07-21T03:57:43;18.95;;;13.98;;
24064;SDS011;12258;50.940;5.330;2022-07-21T04:00:12;19.83;;;13.85;;
24064;SDS011;12258;50.940;5.330;2022-07-21T04:02:43;16.73;;;13.73;;
24064;SDS011;12258;50.940;5.330;2022-07-21T04:05:12;20.50;;;14.05;;
24064;SDS011;12258;50.940;5.330;2022-07-21T04:07:39;17.98;;;13.68;;
24064;SDS011;12258;50.940;5.330;2022-07-21T04:10:06;19.90;;;14.02;;
24064;SDS011;12258;50.940;5.330;2022-07-21T04:12:32;15.75;;;12.88;;
24064;SDS011;12258;50.940;5.330;2022-07-21T04:14:57;18.80;;;13.40;;
24064;SDS011;12258;50.940;5.330;2022-07-21T04:17:23;20.05;;;14.05;;
24064;SDS011;12258;50.940;5.330;2022-07-21T04:19:49;15.02;;;12.35;;
24064;SDS011;12258;50.940;5.330;2022-07-21T04:22:15;17.05;;;14.02;;
24064;SDS011;12258;50.940;5.330;2022-07-21T04:24:41;23.25;;;13.02;;
24064;SDS011;12258;50.940;5.330;2022-07-21T04:27:06;19.02;;;12.23;;
24064;SDS011;12258;50.940;5.330;2022-07-21T04:29:32;15.18;;;12.35;;
24064;SDS011;12258;50.940;5.330;2022-07-21T04:31:57;16.92;;;14.13;;
24064;SDS011;12258;50.940;5.330;2022-07-21T04:34:24;18.45;;;14.60;;
24064;SDS011;12258;50.940;5.330;2022-07-21T04:36:49;21.00;;;13.07;;
24064;SDS011;12258;50.940;5.330;2022-07-21T04:39:14;16.13;;;12.93;;
24064;SDS011;12258;50.940;5.330;2022-07-21T04:41:40;18.38;;;12.90;;
24064;SDS011;12258;50.940;5.330;2022-07-21T04:44:06;17.80;;;13.43;;
24064;SDS011;12258;50.940;5.330;2022-07-21T04:46:32;19.73;;;12.63;;
24064;SDS011;12258;50.940;5.330;2022-07-21T04:48:57;22.25;;;13.43;;
24064;SDS011;12258;50.940;5.330;2022-07-21T04:51:23;17.80;;;12.68;;
24064;SDS011;12258;50.940;5.330;2022-07-21T04:53:49;17.63;;;12.63;;
24064;SDS011;12258;50.940;5.330;2022-07-21T04:56:14;19.17;;;12.63;;
24064;SDS011;12258;50.940;5.330;2022-07-21T04:58:40;21.25;;;12.90;;
24064;SDS011;12258;50.940;5.330;2022-07-21T05:01:05;26.10;;;12.18;;
24064;SDS011;12258;50.940;5.330;2022-07-21T05:03:31;15.13;;;13.25;;
24064;SDS011;12258;50.940;5.330;2022-07-21T05:05:57;17.17;;;11.30;;
24064;SDS011;12258;50.940;5.330;2022-07-21T05:08:22;18.67;;;11.93;;
24064;SDS011;12258;50.940;5.330;2022-07-21T05:10:51;11.95;;;10.30;;
24064;SDS011;12258;50.940;5.330;2022-07-21T05:13:16;17.52;;;11.13;;
24064;SDS011;12258;50.940;5.330;2022-07-21T05:15:42;16.50;;;12.00;;
24064;SDS011;12258;50.940;5.330;2022-07-21T05:18:07;20.20;;;12.25;;
24064;SDS011;12258;50.940;5.330;2022-07-21T05:20:33;13.88;;;10.90;;
24064;SDS011;12258;50.940;5.330;2022-07-21T05:23:00;17.17;;;11.27;;
24064;SDS011;12258;50.940;5.330;2022-07-21T05:25:26;19.15;;;12.40;;
24064;SDS011;12258;50.940;5.330;2022-07-21T05:27:53;15.20;;;11.45;;
24064;SDS011;12258;50.940;5.330;2022-07-21T05:30:19;16.08;;;11.35;;
24064;SDS011;12258;50.940;5.330;2022-07-21T05:32:45;17.70;;;11.68;;
24064;SDS011;12258;50.940;5.330;2022-07-21T05:35:10;21.67;;;11.77;;
24064;SDS011;12258;50.940;5.330;2022-07-21T05:37:39;17.98;;;12.20;;
24064;SDS011;12258;50.940;5.330;2022-07-21T05:40:06;17.13;;;11.48;;
24064;SDS011;12258;50.940;5.330;2022-07-21T05:42:35;18.38;;;12.70;;
24064;SDS011;12258;50.940;5.330;2022-07-21T05:45:01;20.25;;;12.52;;
24064;SDS011;12258;50.940;5.330;2022-07-21T05:47:28;15.68;;;11.73;;
24064;SDS011;12258;50.940;5.330;2022-07-21T05:49:55;23.40;;;13.60;;
24064;SDS011;12258;50.940;5.330;2022-07-21T05:52:20;18.38;;;13.15;;
24064;SDS011;12258;50.940;5.330;2022-07-21T05:54:45;16.58;;;13.48;;
24064;SDS011;12258;50.940;5.330;2022-07-21T05:57:11;20.40;;;14.15;;
24064;SDS011;12258;50.940;5.330;2022-07-21T05:59:36;21.45;;;13.65;;
24064;SDS011;12258;50.940;5.330;2022-07-21T06:02:02;22.48;;;14.23;;
24064;SDS011;12258;50.940;5.330;2022-07-21T06:04:27;18.98;;;13.93;;
24064;SDS011;12258;50.940;5.330;2022-07-21T06:06:53;21.27;;;14.90;;
24064;SDS011;12258;50.940;5.330;2022-07-21T06:09:19;18.25;;;13.30;;
24064;SDS011;12258;50.940;5.330;2022-07-21T06:11:44;22.02;;;13.30;;
24064;SDS011;12258;50.940;5.330;2022-07-21T06:14:10;24.00;;;13.90;;
24064;SDS011;12258;50.940;5.330;2022-07-21T06:16:36;21.77;;;13.13;;
24064;SDS011;12258;50.940;5.330;2022-07-21T06:19:02;19.17;;;12.90;;
24064;SDS011;12258;50.940;5.330;2022-07-21T06:21:28;22.33;;;12.57;;
24064;SDS011;12258;50.940;5.330;2022-07-21T06:23:53;20.88;;;13.07;;
24064;SDS011;12258;50.940;5.330;2022-07-21T06:26:19;19.00;;;13.32;;
24064;SDS011;12258;50.940;5.330;2022-07-21T06:28:45;20.83;;;13.10;;
24064;SDS011;12258;50.940;5.330;2022-07-21T06:31:10;17.67;;;13.23;;
24064;SDS011;12258;50.940;5.330;2022-07-21T06:33:36;20.35;;;14.18;;
24064;SDS011;12258;50.940;5.330;2022-07-21T06:36:02;25.35;;;13.02;;
24064;SDS011;12258;50.940;5.330;2022-07-21T06:38:28;18.80;;;12.93;;
24064;SDS011;12258;50.940;5.330;2022-07-21T06:40:53;20.65;;;12.63;;
24064;SDS011;12258;50.940;5.330;2022-07-21T06:43:19;18.58;;;12.95;;
24064;SDS011;12258;50.940;5.330;2022-07-21T06:45:45;23.25;;;13.65;;
24064;SDS011;12258;50.940;5.330;2022-07-21T06:48:10;19.48;;;13.27;;
24064;SDS011;12258;50.940;5.330;2022-07-21T06:50:37;20.40;;;13.60;;
24064;SDS011;12258;50.940;5.330;2022-07-21T06:53:04;23.77;;;14.82;;
24064;SDS011;12258;50.940;5.330;2022-07-21T06:55:31;21.48;;;15.13;;
24064;SDS011;12258;50.940;5.330;2022-07-21T06:57:57;21.60;;;14.50;;
24064;SDS011;12258;50.940;5.330;2022-07-21T07:00:32;22.55;;;15.25;;
24064;SDS011;12258;50.940;5.330;2022-07-21T07:02:58;20.33;;;14.60;;
24064;SDS011;12258;50.940;5.330;2022-07-21T07:05:23;22.48;;;15.18;;
24064;SDS011;12258;50.940;5.330;2022-07-21T07:07:52;24.15;;;15.05;;
24064;SDS011;12258;50.940;5.330;2022-07-21T07:10:18;28.38;;;15.70;;
24064;SDS011;12258;50.940;5.330;2022-07-21T07:12:43;36.65;;;16.80;;
24064;SDS011;12258;50.940;5.330;2022-07-21T07:15:09;25.75;;;15.57;;
24064;SDS011;12258;50.940;5.330;2022-07-21T07:17:35;25.10;;;15.60;;
24064;SDS011;12258;50.940;5.330;2022-07-21T07:20:01;25.90;;;15.90;;
24064;SDS011;12258;50.940;5.330;2022-07-21T07:22:26;27.30;;;15.32;;
24064;SDS011;12258;50.940;5.330;2022-07-21T07:24:52;22.60;;;14.43;;
24064;SDS011;12258;50.940;5.330;2022-07-21T07:27:18;22.15;;;14.32;;
24064;SDS011;12258;50.940;5.330;2022-07-21T07:29:44;22.70;;;14.43;;
24064;SDS011;12258;50.940;5.330;2022-07-21T07:32:10;22.67;;;14.25;;
24064;SDS011;12258;50.940;5.330;2022-07-21T07:34:35;25.65;;;15.80;;
24064;SDS011;12258;50.940;5.330;2022-07-21T07:37:00;25.92;;;15.77;;
24064;SDS011;12258;50.940;5.330;2022-07-21T07:39:26;25.33;;;14.80;;
24064;SDS011;12258;50.940;5.330;2022-07-21T07:41:52;25.75;;;15.95;;
24064;SDS011;12258;50.940;5.330;2022-07-21T07:44:17;26.38;;;15.93;;
24064;SDS011;12258;50.940;5.330;2022-07-21T07:46:43;25.63;;;15.02;;
24064;SDS011;12258;50.940;5.330;2022-07-21T07:49:09;30.13;;;15.75;;
24064;SDS011;12258;50.940;5.330;2022-07-21T07:51:34;28.90;;;15.85;;
24064;SDS011;12258;50.940;5.330;2022-07-21T07:54:00;27.75;;;15.80;;
24064;SDS011;12258;50.940;5.330;2022-07-21T07:56:28;27.88;;;14.90;;
24064;SDS011;12258;50.940;5.330;2022-07-21T07:58:53;27.10;;;14.85;;
24064;SDS011;12258;50.940;5.330;2022-07-21T08:01:19;23.42;;;14.93;;
24064;SDS011;12258;50.940;5.330;2022-07-21T08:03:44;24.08;;;14.85;;
24064;SDS011;12258;50.940;5.330;2022-07-21T08:06:10;23.23;;;15.07;;
24064;SDS011;12258;50.940;5.330;2022-07-21T08:08:36;28.17;;;15.77;;
24064;SDS011;12258;50.940;5.330;2022-07-21T08:11:02;23.45;;;16.17;;
24064;SDS011;12258;50.940;5.330;2022-07-21T08:13:27;23.27;;;14.48;;
24064;SDS011;12258;50.940;5.330;2022-07-21T08:15:53;22.48;;;15.00;;
24064;SDS011;12258;50.940;5.330;2022-07-21T08:18:19;25.95;;;16.67;;
24064;SDS011;12258;50.940;5.330;2022-07-21T08:20:45;21.70;;;15.20;;
24064;SDS011;12258;50.940;5.330;2022-07-21T08:23:12;25.83;;;17.45;;
24064;SDS011;12258;50.940;5.330;2022-07-21T08:25:38;25.73;;;16.75;;
24064;SDS011;12258;50.940;5.330;2022-07-21T08:28:05;28.10;;;17.30;;
24064;SDS011;12258;50.940;5.330;2022-07-21T08:30:31;25.77;;;15.80;;
24064;SDS011;12258;50.940;5.330;2022-07-21T08:32:57;25.77;;;16.17;;
24064;SDS011;12258;50.940;5.330;2022-07-21T08:35:23;21.50;;;15.80;;
24064;SDS011;12258;50.940;5.330;2022-07-21T08:37:54;22.42;;;15.38;;
24064;SDS011;12258;50.940;5.330;2022-07-21T08:40:19;26.73;;;16.00;;
24064;SDS011;12258;50.940;5.330;2022-07-21T08:42:48;24.52;;;16.23;;
24064;SDS011;12258;50.940;5.330;2022-07-21T08:45:14;25.73;;;16.90;;
24064;SDS011;12258;50.940;5.330;2022-07-21T08:47:39;24.50;;;16.15;;
24064;SDS011;12258;50.940;5.330;2022-07-21T08:50:05;22.33;;;15.38;;
24064;SDS011;12258;50.940;5.330;2022-07-21T08:52:33;21.15;;;14.70;;
24064;SDS011;12258;50.940;5.330;2022-07-21T08:54:58;19.88;;;15.00;;
24064;SDS011;12258;50.940;5.330;2022-07-21T08:57:25;18.45;;;13.55;;
24064;SDS011;12258;50.940;5.330;2022-07-21T08:59:52;21.45;;;13.57;;
24064;SDS011;12258;50.940;5.330;2022-07-21T09:02:30;21.83;;;14.45;;
24064;SDS011;12258;50.940;5.330;2022-07-21T09:04:58;19.67;;;13.48;;
24064;SDS011;12258;50.940;5.330;2022-07-21T09:07:24;18.15;;;12.38;;
24064;SDS011;12258;50.940;5.330;2022-07-21T09:09:57;16.75;;;12.55;;
24064;SDS011;12258;50.940;5.330;2022-07-21T09:12:25;17.60;;;12.88;;
24064;SDS011;12258;50.940;5.330;2022-07-21T09:14:51;15.25;;;11.38;;
24064;SDS011;12258;50.940;5.330;2022-07-21T09:17:18;16.75;;;12.35;;
24064;SDS011;12258;50.940;5.330;2022-07-21T09:19:44;19.92;;;13.55;;
24064;SDS011;12258;50.940;5.330;2022-07-21T09:22:13;15.38;;;12.52;;
24064;SDS011;12258;50.940;5.330;2022-07-21T09:24:43;19.77;;;13.55;;
24064;SDS011;12258;50.940;5.330;2022-07-21T09:27:15;19.95;;;13.75;;
24064;SDS011;12258;50.940;5.330;2022-07-21T09:29:43;19.35;;;14.45;;
24064;SDS011;12258;50.940;5.330;2022-07-21T09:32:14;25.20;;;16.40;;
24064;SDS011;12258;50.940;5.330;2022-07-21T09:35:10;26.75;;;17.15;;
24064;SDS011;12258;50.940;5.330;2022-07-21T09:37:40;23.55;;;16.85;;
24064;SDS011;12258;50.940;5.330;2022-07-21T09:40:08;23.58;;;18.20;;
24064;SDS011;12258;50.940;5.330;2022-07-21T09:42:39;28.60;;;19.30;;
24064;SDS011;12258;50.940;5.330;2022-07-21T09:45:10;26.15;;;18.30;;
24064;SDS011;12258;50.940;5.330;2022-07-21T09:47:39;32.20;;;20.60;;
24064;SDS011;12258;50.940;5.330;2022-07-21T09:50:06;34.78;;;20.70;;
24064;SDS011;12258;50.940;5.330;2022-07-21T09:52:37;31.52;;;20.05;;
24064;SDS011;12258;50.940;5.330;2022-07-21T09:57:32;31.50;;;19.77;;
24064;SDS011;12258;50.940;5.330;2022-07-21T09:59:59;36.35;;;20.33;;
24064;SDS011;12258;50.940;5.330;2022-07-21T10:02:29;28.75;;;20.85;;
24064;SDS011;12258;50.940;5.330;2022-07-21T10:04:57;34.50;;;21.17;;
24064;SDS011;12258;50.940;5.330;2022-07-21T10:07:30;35.03;;;21.27;;
24064;SDS011;12258;50.940;5.330;2022-07-21T10:09:57;31.77;;;21.13;;
24064;SDS011;12258;50.940;5.330;2022-07-21T10:12:24;32.42;;;21.15;;
24064;SDS011;12258;50.940;5.330;2022-07-21T10:14:52;28.95;;;20.05;;
24064;SDS011;12258;50.940;5.330;2022-07-21T10:17:19;32.70;;;22.35;;
24064;SDS011;12258;50.940;5.330;2022-07-21T10:20:02;30.60;;;20.27;;
24064;SDS011;12258;50.940;5.330;2022-07-21T10:25:28;28.95;;;19.92;;
24064;SDS011;12258;50.940;5.330;2022-07-21T10:30:42;30.30;;;19.42;;
24064;SDS011;12258;50.940;5.330;2022-07-21T10:33:09;28.52;;;19.67;;
24064;SDS011;12258;50.940;5.330;2022-07-21T10:35:46;26.63;;;18.13;;
24064;SDS011;12258;50.940;5.330;2022-07-21T10:38:30;20.80;;;16.55;;
24064;SDS011;12258;50.940;5.330;2022-07-21T10:40:58;21.37;;;15.03;;
24064;SDS011;12258;50.940;5.330;2022-07-21T10:45:51;27.58;;;14.70;;
24064;SDS011;12258;50.940;5.330;2022-07-21T10:51:02;14.77;;;11.32;;
24064;SDS011;12258;50.940;5.330;2022-07-21T10:53:32;15.20;;;11.63;;
24064;SDS011;12258;50.940;5.330;2022-07-21T10:55:58;17.25;;;12.18;;
24064;SDS011;12258;50.940;5.330;2022-07-21T10:58:30;16.17;;;11.75;;
24064;SDS011;12258;50.940;5.330;2022-07-21T11:00:57;14.07;;;11.03;;
24064;SDS011;12258;50.940;5.330;2022-07-21T11:03:45;12.38;;;9.75;;
24064;SDS011;12258;50.940;5.330;2022-07-21T11:11:28;17.50;;;11.20;;
24064;SDS011;12258;50.940;5.330;2022-07-21T11:24:42;17.40;;;10.98;;
24064;SDS011;12258;50.940;5.330;2022-07-21T11:27:15;11.55;;;9.95;;
24064;SDS011;12258;50.940;5.330;2022-07-21T11:29:44;12.13;;;9.63;;
24064;SDS011;12258;50.940;5.330;2022-07-21T11:32:11;12.85;;;10.63;;
24064;SDS011;12258;50.940;5.330;2022-07-21T11:34:55;12.40;;;8.75;;
24064;SDS011;12258;50.940;5.330;2022-07-21T11:37:29;11.90;;;8.57;;
24064;SDS011;12258;50.940;5.330;2022-07-21T11:39:55;16.83;;;9.80;;
24064;SDS011;12258;50.940;5.330;2022-07-21T11:42:22;12.07;;;8.65;;
24064;SDS011;12258;50.940;5.330;2022-07-21T11:44:47;11.48;;;8.40;;
24064;SDS011;12258;50.940;5.330;2022-07-21T11:47:14;10.35;;;8.32;;
24064;SDS011;12258;50.940;5.330;2022-07-21T11:49:41;10.65;;;8.02;;
24064;SDS011;12258;50.940;5.330;2022-07-21T11:52:26;12.63;;;7.82;;
24064;SDS011;12258;50.940;5.330;2022-07-21T11:54:55;10.50;;;7.60;;
24064;SDS011;12258;50.940;5.330;2022-07-21T11:57:23;9.50;;;7.47;;
24064;SDS011;12258;50.940;5.330;2022-07-21T11:59:50;14.75;;;8.07;;
24064;SDS011;12258;50.940;5.330;2022-07-21T12:02:21;14.90;;;8.18;;
24064;SDS011;12258;50.940;5.330;2022-07-21T12:04:52;14.20;;;7.70;;
24064;SDS011;12258;50.940;5.330;2022-07-21T12:09:55;11.98;;;7.88;;
24064;SDS011;12258;50.940;5.330;2022-07-21T12:12:29;10.77;;;7.68;;
24064;SDS011;12258;50.940;5.330;2022-07-21T12:17:46;12.32;;;8.00;;
24064;SDS011;12258;50.940;5.330;2022-07-21T12:20:15;13.55;;;8.18;;
24064;SDS011;12258;50.940;5.330;2022-07-21T12:22:49;12.90;;;7.65;;
24064;SDS011;12258;50.940;5.330;2022-07-21T12:25:15;13.10;;;8.60;;
24064;SDS011;12258;50.940;5.330;2022-07-21T12:27:46;14.82;;;9.63;;
24064;SDS011;12258;50.940;5.330;2022-07-21T12:36:00;14.05;;;7.93;;
24064;SDS011;12258;50.940;5.330;2022-07-21T12:38:37;12.95;;;9.07;;
24064;SDS011;12258;50.940;5.330;2022-07-21T12:41:03;13.60;;;9.02;;
24064;SDS011;12258;50.940;5.330;2022-07-21T12:43:29;13.90;;;9.57;;
24064;SDS011;12258;50.940;5.330;2022-07-21T12:45:55;13.18;;;8.57;;
24064;SDS011;12258;50.940;5.330;2022-07-21T12:53:29;11.57;;;6.78;;
24064;SDS011;12258;50.940;5.330;2022-07-21T12:55:55;6.05;;;5.43;;
24064;SDS011;12258;50.940;5.330;2022-07-21T12:58:22;9.25;;;5.57;;
24064;SDS011;12258;50.940;5.330;2022-07-21T13:00:48;10.32;;;6.45;;
24064;SDS011;12258;50.940;5.330;2022-07-21T13:03:14;8.07;;;6.00;;
24064;SDS011;12258;50.940;5.330;2022-07-21T13:05:41;6.65;;;5.00;;
24064;SDS011;12258;50.940;5.330;2022-07-21T13:08:07;4.35;;;3.90;;
24064;SDS011;12258;50.940;5.330;2022-07-21T13:10:32;6.35;;;4.03;;
24064;SDS011;12258;50.940;5.330;2022-07-21T13:12:58;6.50;;;4.65;;
24064;SDS011;12258;50.940;5.330;2022-07-21T13:15:24;5.63;;;4.18;;
24064;SDS011;12258;50.940;5.330;2022-07-21T13:17:50;6.47;;;4.03;;
24064;SDS011;12258;50.940;5.330;2022-07-21T13:20:15;7.03;;;4.30;;
24064;SDS011;12258;50.940;5.330;2022-07-21T13:22:41;4.68;;;3.83;;
24064;SDS011;12258;50.940;5.330;2022-07-21T13:25:07;5.30;;;3.72;;
24064;SDS011;12258;50.940;5.330;2022-07-21T13:27:35;6.30;;;3.25;;
24064;SDS011;12258;50.940;5.330;2022-07-21T13:30:01;6.95;;;3.22;;
24064;SDS011;12258;50.940;5.330;2022-07-21T13:32:28;6.80;;;3.03;;
24064;SDS011;12258;50.940;5.330;2022-07-21T13:34:54;4.07;;;3.00;;
24064;SDS011;12258;50.940;5.330;2022-07-21T13:37:19;5.35;;;3.35;;
24064;SDS011;12258;50.940;5.330;2022-07-21T13:39:44;7.82;;;3.15;;
24064;SDS011;12258;50.940;5.330;2022-07-21T13:42:10;5.13;;;2.58;;
24064;SDS011;12258;50.940;5.330;2022-07-21T13:44:35;3.70;;;2.67;;
24064;SDS011;12258;50.940;5.330;2022-07-21T13:47:01;5.25;;;2.67;;
24064;SDS011;12258;50.940;5.330;2022-07-21T13:49:27;7.65;;;3.08;;
24064;SDS011;12258;50.940;5.330;2022-07-21T13:51:53;6.45;;;3.15;;
24064;SDS011;12258;50.940;5.330;2022-07-21T13:54:19;6.35;;;3.80;;
24064;SDS011;12258;50.940;5.330;2022-07-21T13:56:45;6.50;;;3.88;;
24064;SDS011;12258;50.940;5.330;2022-07-21T13:59:10;7.80;;;3.90;;
24064;SDS011;12258;50.940;5.330;2022-07-21T14:01:36;7.15;;;3.97;;
24064;SDS011;12258;50.940;5.330;2022-07-21T14:04:02;8.05;;;3.95;;
24064;SDS011;12258;50.940;5.330;2022-07-21T14:06:28;8.88;;;4.45;;
24064;SDS011;12258;50.940;5.330;2022-07-21T14:08:54;6.28;;;4.03;;
24064;SDS011;12258;50.940;5.330;2022-07-21T14:11:20;4.80;;;3.97;;
24064;SDS011;12258;50.940;5.330;2022-07-21T14:13:47;5.53;;;4.20;;
24064;SDS011;12258;50.940;5.330;2022-07-21T14:16:13;7.75;;;4.13;;
24064;SDS011;12258;50.940;5.330;2022-07-21T14:18:39;7.03;;;4.65;;
24064;SDS011;12258;50.940;5.330;2022-07-21T14:21:05;9.23;;;4.35;;
24064;SDS011;12258;50.940;5.330;2022-07-21T14:23:30;6.63;;;3.78;;
24064;SDS011;12258;50.940;5.330;2022-07-21T14:25:57;14.45;;;4.10;;
24064;SDS011;12258;50.940;5.330;2022-07-21T14:28:23;5.90;;;3.65;;
24064;SDS011;12258;50.940;5.330;2022-07-21T14:30:49;6.25;;;4.43;;
24064;SDS011;12258;50.940;5.330;2022-07-21T14:33:16;7.97;;;4.05;;
24064;SDS011;12258;50.940;5.330;2022-07-21T14:35:41;10.30;;;3.92;;
24064;SDS011;12258;50.940;5.330;2022-07-21T14:38:07;6.97;;;4.28;;
24064;SDS011;12258;50.940;5.330;2022-07-21T14:40:33;7.60;;;4.78;;
24064;SDS011;12258;50.940;5.330;2022-07-21T14:42:59;11.57;;;5.30;;
24064;SDS011;12258;50.940;5.330;2022-07-21T14:45:25;10.93;;;6.00;;
24064;SDS011;12258;50.940;5.330;2022-07-21T14:47:51;10.13;;;5.78;;
24064;SDS011;12258;50.940;5.330;2022-07-21T14:50:17;11.52;;;5.05;;
24064;SDS011;12258;50.940;5.330;2022-07-21T14:52:42;7.70;;;4.88;;
24064;SDS011;12258;50.940;5.330;2022-07-21T14:55:08;9.57;;;5.57;;
24064;SDS011;12258;50.940;5.330;2022-07-21T14:57:34;8.70;;;5.10;;
24064;SDS011;12258;50.940;5.330;2022-07-21T15:00:02;12.60;;;6.00;;
24064;SDS011;12258;50.940;5.330;2022-07-21T15:02:30;11.10;;;5.03;;
24064;SDS011;12258;50.940;5.330;2022-07-21T15:04:55;14.65;;;5.85;;
24064;SDS011;12258;50.940;5.330;2022-07-21T15:07:21;9.82;;;5.22;;
24064;SDS011;12258;50.940;5.330;2022-07-21T15:09:47;13.13;;;5.38;;
24064;SDS011;12258;50.940;5.330;2022-07-21T15:12:13;11.77;;;5.13;;
24064;SDS011;12258;50.940;5.330;2022-07-21T15:14:38;14.13;;;5.30;;